Terminal Aerodrome Forecast
Issued by NWS

Home | Current Version | Previous Version | Text Only | Print | Product List | Glossary Off
Versions: 1 2 3 4 5 6 7 8 9 10 11 12 13 14 15 16 17 18 19 20 21 22 23 24 25 26 27

000
FTUS43 KOAX 251120
TAFCDR
TAF
KCDR 251120Z 2512/2612 28005KT 4SM -RA BR OVC003
     FM251700 36005KT 5SM -RA BR SCT005 OVC015
     FM251900 01010KT P6SM VCTS BKN025CB
     FM252100 02010KT 6SM -TSRA BKN035CB
     FM260200 03005KT 4SM BR SCT005 OVC015=

USA.gov is the U.S. government's official web portal to all federal, state and local government web resources and services.